createdAt,value
2024-02-02T00:02:08.264Z,4.70
2024-02-02T00:07:01.037Z,4.70
2024-02-02T00:11:54.024Z,4.10
2024-02-02T00:16:46.873Z,3.90
2024-02-02T00:21:39.662Z,4.00
2024-02-02T00:26:32.739Z,4.20
2024-02-02T00:31:27.742Z,3.10
2024-02-02T00:36:20.507Z,3.30
2024-02-02T00:41:13.202Z,3.30
2024-02-02T00:46:06.146Z,4.70
2024-02-02T00:51:05.326Z,3.40
2024-02-02T00:56:42.514Z,3.70
2024-02-02T01:01:42.357Z,5.90
2024-02-02T01:06:35.293Z,4.30
2024-02-02T01:11:28.220Z,3.80
2024-02-02T01:16:20.976Z,5.10
2024-02-02T01:21:13.718Z,4.70
2024-02-02T01:26:06.451Z,3.80
2024-02-02T01:30:59.181Z,3.90
2024-02-02T01:35:51.977Z,4.00
2024-02-02T01:40:45.363Z,3.50
2024-02-02T01:45:39.581Z,2.50
2024-02-02T01:50:32.751Z,3.00
2024-02-02T01:55:25.521Z,3.10
2024-02-02T02:00:18.937Z,3.20
2024-02-02T02:05:13.414Z,3.70
2024-02-02T02:10:06.726Z,3.30
2024-02-02T02:15:00.231Z,2.80
2024-02-02T02:19:53.280Z,3.20
2024-02-02T02:24:46.003Z,2.70
2024-02-02T02:29:38.764Z,2.60
2024-02-02T02:34:32.652Z,2.80
2024-02-02T02:39:25.741Z,3.50
2024-02-02T02:44:18.590Z,3.80
2024-02-02T02:49:11.450Z,3.90
2024-02-02T02:54:04.446Z,3.20
2024-02-02T02:58:57.173Z,2.90
2024-02-02T03:03:49.966Z,3.20
2024-02-02T03:08:42.663Z,4.30
2024-02-02T03:13:35.393Z,4.00
2024-02-02T03:18:28.538Z,3.80
2024-02-02T03:23:21.267Z,3.50
2024-02-02T03:28:13.976Z,3.00
2024-02-02T03:33:07.028Z,3.10
2024-02-02T03:37:59.761Z,4.60
2024-02-02T03:42:52.477Z,4.40
2024-02-02T03:47:45.258Z,4.70
2024-02-02T03:52:37.976Z,4.00
2024-02-02T03:57:30.782Z,3.50
2024-02-02T04:02:23.561Z,3.90
2024-02-02T04:07:16.386Z,3.70
2024-02-02T04:12:09.219Z,3.20
2024-02-02T04:17:01.980Z,3.40
2024-02-02T04:21:54.732Z,3.70
2024-02-02T04:26:47.647Z,4.50
2024-02-02T04:31:40.392Z,4.30
2024-02-02T04:36:33.115Z,3.60
2024-02-02T04:41:25.869Z,4.00
2024-02-02T04:46:18.609Z,3.80
2024-02-02T04:51:11.312Z,3.90
2024-02-02T04:56:04.051Z,4.00
2024-02-02T05:00:56.721Z,3.90
2024-02-02T05:05:49.393Z,5.40
2024-02-02T05:10:42.148Z,4.30
2024-02-02T05:15:37.083Z,3.50
2024-02-02T05:20:29.996Z,4.60
2024-02-02T05:25:22.724Z,3.80
2024-02-02T05:30:15.905Z,4.00
2024-02-02T05:35:09.039Z,3.90
2024-02-02T05:40:01.775Z,3.20
2024-02-02T05:44:54.586Z,3.90
2024-02-02T05:49:47.384Z,4.00
2024-02-02T05:54:40.205Z,3.30
2024-02-02T05:59:32.937Z,4.20
2024-02-02T06:04:25.681Z,6.20
2024-02-02T06:09:18.448Z,2.80
2024-02-02T06:14:11.177Z,4.00
2024-02-02T06:19:04.067Z,3.00
2024-02-02T06:23:56.894Z,4.80
2024-02-02T06:28:49.677Z,4.10
2024-02-02T06:33:42.762Z,5.00
2024-02-02T06:38:35.656Z,4.20
2024-02-02T06:43:28.347Z,4.20
2024-02-02T06:48:22.655Z,4.40
2024-02-02T06:53:17.120Z,3.50
2024-02-02T06:58:42.252Z,4.70
2024-02-02T07:03:35.190Z,4.70
2024-02-02T07:08:28.425Z,3.80
2024-02-02T07:13:21.165Z,3.40
2024-02-02T07:18:38.613Z,4.30
2024-02-02T07:23:35.920Z,4.60
2024-02-02T07:28:37.267Z,4.50
2024-02-02T07:33:43.424Z,5.20
2024-02-02T07:38:56.324Z,3.90
2024-02-02T07:43:49.392Z,4.40
2024-02-02T07:48:42.442Z,4.00
2024-02-02T07:53:35.914Z,3.70
2024-02-02T07:58:28.618Z,3.70
2024-02-02T08:03:21.403Z,4.30
2024-02-02T08:08:14.365Z,4.20
2024-02-02T08:13:07.077Z,3.50
2024-02-02T08:17:59.922Z,4.40
2024-02-02T08:22:52.823Z,4.60
2024-02-02T08:27:45.745Z,4.00
2024-02-02T08:32:39.618Z,4.20
2024-02-02T08:37:33.331Z,4.20
2024-02-02T08:42:26.587Z,5.90
2024-02-02T08:47:20.624Z,3.70
2024-02-02T08:52:32.982Z,4.70
2024-02-02T08:57:38.818Z,5.20
2024-02-02T09:02:50.351Z,4.30
2024-02-02T09:07:43.634Z,4.70
2024-02-02T09:12:36.333Z,5.10
2024-02-02T09:17:33.236Z,5.20
2024-02-02T09:22:28.471Z,4.20
2024-02-02T09:27:38.049Z,4.80
2024-02-02T09:32:31.144Z,4.90
2024-02-02T09:37:31.821Z,3.70
2024-02-02T09:43:03.136Z,4.60
2024-02-02T09:48:02.798Z,4.40
2024-02-02T09:53:38.676Z,4.40
2024-02-02T09:58:57.773Z,4.00
2024-02-02T10:04:12.795Z,4.70
2024-02-02T10:09:39.541Z,4.50
2024-02-02T10:14:50.913Z,5.00
2024-02-02T10:19:55.569Z,5.40
2024-02-02T10:25:00.348Z,5.00
2024-02-02T10:30:14.624Z,4.90
2024-02-02T10:35:25.678Z,4.80
2024-02-02T10:40:57.966Z,4.80
2024-02-02T10:46:09.762Z,5.30
2024-02-02T10:51:30.079Z,6.60
2024-02-02T10:56:44.725Z,6.70
2024-02-02T11:01:48.655Z,5.00
2024-02-02T11:06:47.626Z,3.70
2024-02-02T11:11:47.046Z,5.80
2024-02-02T11:16:46.147Z,4.60
2024-02-02T11:22:04.360Z,5.70
2024-02-02T11:27:07.453Z,4.80
2024-02-02T11:32:35.859Z,6.70
2024-02-02T11:38:12.866Z,5.90
2024-02-02T11:43:08.406Z,5.30
2024-02-02T11:48:06.332Z,5.30
2024-02-02T11:53:16.520Z,5.40
2024-02-02T11:58:12.134Z,4.60
2024-02-02T12:03:22.782Z,5.40
2024-02-02T12:08:38.353Z,5.30
2024-02-02T12:13:32.636Z,5.10
2024-02-02T12:18:26.854Z,5.60
2024-02-02T12:23:19.793Z,4.30
2024-02-02T12:28:13.507Z,5.30
2024-02-02T12:33:09.132Z,4.20
2024-02-02T12:38:01.926Z,5.70
2024-02-02T12:42:58.753Z,4.80
2024-02-02T12:47:52.702Z,5.40
2024-02-02T12:52:51.839Z,8.10
2024-02-02T12:57:45.155Z,6.20
2024-02-02T13:02:38.302Z,6.00
2024-02-02T13:07:32.347Z,5.60
2024-02-02T13:12:29.512Z,4.70
2024-02-02T13:17:22.552Z,5.90
2024-02-02T13:22:22.939Z,4.90
2024-02-02T13:27:20.857Z,5.10
2024-02-02T13:32:23.084Z,6.00
2024-02-02T13:37:30.743Z,5.20
2024-02-02T13:47:21.556Z,4.90
2024-02-02T13:52:14.514Z,5.50
2024-02-02T13:57:08.884Z,6.20
2024-02-02T14:02:08.919Z,4.50
2024-02-02T14:07:02.156Z,4.60
2024-02-02T14:12:02.537Z,6.20
2024-02-02T14:17:05.628Z,5.90
2024-02-02T14:22:09.566Z,5.10
2024-02-02T14:27:04.666Z,8.20
2024-02-02T14:31:59.312Z,5.60
2024-02-02T14:36:52.235Z,5.60
2024-02-02T14:41:45.164Z,5.00
2024-02-02T14:46:41.180Z,6.80
2024-02-02T14:51:34.145Z,5.60
2024-02-02T14:56:27.811Z,6.20
2024-02-02T15:01:22.681Z,5.70
2024-02-02T15:06:15.726Z,5.80
2024-02-02T15:11:10.316Z,6.00
2024-02-02T15:16:04.740Z,6.70
2024-02-02T15:20:57.877Z,6.60
2024-02-02T15:25:50.886Z,7.00
2024-02-02T15:30:44.422Z,6.20
2024-02-02T15:35:37.303Z,5.90
2024-02-02T15:40:30.073Z,5.30
2024-02-02T15:45:24.267Z,6.80
2024-02-02T15:50:17.281Z,8.10
2024-02-02T15:55:11.477Z,8.20
2024-02-02T16:00:09.834Z,8.40
2024-02-02T16:05:02.695Z,7.90
2024-02-02T16:09:57.583Z,8.80
2024-02-02T16:14:50.399Z,8.00
2024-02-02T16:19:43.370Z,9.00
2024-02-02T16:24:37.027Z,8.80
2024-02-02T16:29:29.846Z,8.90
2024-02-02T16:34:23.275Z,9.80
2024-02-02T16:39:18.241Z,9.10
2024-02-02T16:44:11.382Z,10.90
2024-02-02T16:49:04.840Z,9.30
2024-02-02T16:53:57.679Z,9.70
2024-02-02T16:58:50.368Z,10.10
2024-02-02T17:03:43.898Z,8.80
2024-02-02T17:08:37.903Z,8.50
2024-02-02T17:13:30.932Z,10.10
2024-02-02T17:18:23.708Z,10.00
2024-02-02T17:23:16.509Z,12.00
2024-02-02T17:28:09.211Z,9.10
2024-02-02T17:33:02.099Z,9.40
2024-02-02T17:37:54.873Z,9.40
2024-02-02T17:42:48.274Z,8.10
2024-02-02T17:47:41.501Z,8.90
2024-02-02T17:52:34.818Z,8.20
2024-02-02T17:57:27.544Z,8.90
2024-02-02T18:02:20.455Z,10.50
2024-02-02T18:07:13.489Z,7.80
2024-02-02T18:12:07.098Z,9.30
2024-02-02T18:17:00.017Z,8.00
2024-02-02T18:21:52.804Z,9.20
2024-02-02T18:26:46.615Z,7.70
2024-02-02T18:31:42.942Z,8.60
2024-02-02T18:36:35.833Z,8.10
2024-02-02T18:41:30.250Z,7.80
2024-02-02T18:46:30.724Z,7.60
2024-02-02T18:51:24.777Z,9.60
2024-02-02T18:56:17.746Z,8.30
2024-02-02T19:01:10.504Z,7.90
2024-02-02T19:06:03.719Z,8.70
2024-02-02T19:11:02.156Z,9.70
2024-02-02T19:15:54.934Z,8.10
2024-02-02T19:20:47.829Z,10.50
2024-02-02T19:25:40.535Z,10.20
2024-02-02T19:30:36.453Z,8.70
2024-02-02T19:35:29.392Z,10.20
2024-02-02T19:40:22.849Z,9.30
2024-02-02T19:45:15.655Z,8.70
2024-02-02T19:50:08.948Z,9.40
2024-02-02T19:55:04.080Z,9.00
2024-02-02T19:59:58.759Z,7.50
2024-02-02T20:04:52.027Z,10.70
2024-02-02T20:09:45.010Z,10.40
2024-02-02T20:14:38.391Z,10.80
2024-02-02T20:19:31.212Z,12.20
2024-02-02T20:24:24.073Z,11.50
2024-02-02T20:29:17.886Z,11.10
2024-02-02T20:34:10.846Z,11.30
2024-02-02T20:39:03.912Z,12.00
2024-02-02T20:43:58.556Z,12.20
2024-02-02T20:48:51.430Z,14.00
2024-02-02T20:53:44.367Z,15.10
2024-02-02T20:58:39.528Z,13.60
2024-02-02T21:03:32.352Z,13.30
2024-02-02T21:08:25.119Z,13.50
2024-02-02T21:13:19.409Z,16.20
2024-02-02T21:18:16.107Z,13.30
2024-02-02T21:23:09.092Z,13.70
2024-02-02T21:28:01.847Z,13.80
2024-02-02T21:32:55.655Z,14.10
2024-02-02T21:37:48.390Z,15.00
2024-02-02T21:42:41.406Z,13.50
2024-02-02T21:47:34.437Z,15.10
2024-02-02T21:52:27.215Z,14.40
2024-02-02T21:57:19.935Z,14.40
2024-02-02T22:02:12.697Z,14.30
2024-02-02T22:07:05.678Z,13.60
2024-02-02T22:11:58.660Z,13.60
2024-02-02T22:16:51.836Z,13.40
2024-02-02T22:21:44.632Z,11.80
2024-02-02T22:26:37.454Z,14.80
2024-02-02T22:31:30.754Z,14.20
2024-02-02T22:36:26.221Z,13.40
2024-02-02T22:41:33.117Z,12.60
2024-02-02T22:46:27.626Z,13.70
2024-02-02T22:51:20.587Z,14.90
2024-02-02T22:56:13.373Z,14.10
2024-02-02T23:01:07.293Z,14.40
2024-02-02T23:06:00.608Z,14.70
2024-02-02T23:10:53.353Z,14.40
2024-02-02T23:15:46.680Z,14.80
2024-02-02T23:20:39.486Z,15.90
2024-02-02T23:25:32.297Z,14.90
2024-02-02T23:30:25.420Z,14.30
2024-02-02T23:35:18.322Z,14.30
2024-02-02T23:40:11.993Z,14.80
2024-02-02T23:45:07.381Z,13.40
2024-02-02T23:50:00.303Z,16.10
2024-02-02T23:54:53.300Z,16.20
2024-02-02T23:59:46.028Z,12.60
